createdAt,value
2023-01-25T00:02:01.234Z,19.15
2023-01-25T00:04:28.401Z,18.20
2023-01-25T00:06:55.253Z,18.80
2023-01-25T00:09:24.442Z,19.52
2023-01-25T00:11:51.442Z,17.17
2023-01-25T00:14:18.040Z,18.08
2023-01-25T00:16:44.825Z,17.30
2023-01-25T00:19:12.000Z,16.25
2023-01-25T00:21:39.100Z,16.63
2023-01-25T00:24:11.860Z,15.38
2023-01-25T00:26:44.068Z,15.90
2023-01-25T00:29:14.151Z,16.70
2023-01-25T00:31:45.079Z,15.45
2023-01-25T00:34:29.834Z,16.15
2023-01-25T00:37:12.979Z,15.32
2023-01-25T00:39:39.745Z,15.38
2023-01-25T00:42:10.843Z,15.13
2023-01-25T00:44:38.681Z,16.17
2023-01-25T00:47:05.493Z,14.70
2023-01-25T00:49:33.532Z,15.60
2023-01-25T00:52:00.476Z,16.40
2023-01-25T00:54:27.178Z,15.38
2023-01-25T00:56:56.320Z,14.93
2023-01-25T00:59:24.540Z,14.90
2023-01-25T01:01:52.313Z,15.68
2023-01-25T01:04:19.903Z,16.83
2023-01-25T01:06:46.883Z,15.48
2023-01-25T01:09:15.761Z,16.17
2023-01-25T01:11:43.018Z,14.88
2023-01-25T01:14:10.117Z,15.32
2023-01-25T01:16:36.798Z,15.30
2023-01-25T01:19:03.936Z,15.52
2023-01-25T01:21:30.560Z,16.50
2023-01-25T01:23:57.351Z,15.80
2023-01-25T01:26:24.685Z,15.77
2023-01-25T01:28:51.208Z,15.38
2023-01-25T01:31:21.633Z,16.48
2023-01-25T01:33:51.258Z,15.85
2023-01-25T01:36:20.148Z,15.70
2023-01-25T01:38:47.017Z,15.88
2023-01-25T01:41:15.251Z,15.18
2023-01-25T01:43:42.987Z,15.05
2023-01-25T01:46:13.854Z,16.45
2023-01-25T01:48:44.020Z,15.98
2023-01-25T01:51:24.753Z,15.40
2023-01-25T01:53:58.115Z,15.25
2023-01-25T01:56:32.274Z,16.15
2023-01-25T01:59:00.245Z,15.07
2023-01-25T02:01:27.645Z,16.60
2023-01-25T02:03:55.392Z,16.38
2023-01-25T02:06:31.476Z,16.42
2023-01-25T02:08:58.658Z,16.90
2023-01-25T02:11:27.355Z,16.88
2023-01-25T02:13:56.040Z,16.23
2023-01-25T02:16:25.768Z,16.08
2023-01-25T02:18:54.120Z,15.82
2023-01-25T02:21:23.409Z,17.15
2023-01-25T02:24:07.145Z,20.13
2023-01-25T02:26:36.402Z,21.67
2023-01-25T02:29:06.164Z,20.48
2023-01-25T02:31:33.127Z,20.30
2023-01-25T02:33:59.857Z,20.30
2023-01-25T02:36:30.946Z,19.02
2023-01-25T02:39:03.923Z,19.00
2023-01-25T02:41:32.562Z,20.95
2023-01-25T02:44:00.655Z,22.15
2023-01-25T02:46:31.707Z,20.48
2023-01-25T02:49:00.033Z,20.02
2023-01-25T02:51:28.436Z,20.27
2023-01-25T02:53:55.977Z,18.45
2023-01-25T02:56:23.218Z,18.38
2023-01-25T02:58:50.031Z,18.65
2023-01-25T03:01:17.625Z,18.25
2023-01-25T03:03:44.271Z,16.85
2023-01-25T03:06:11.162Z,17.15
2023-01-25T03:08:37.898Z,16.85
2023-01-25T03:11:06.687Z,17.73
2023-01-25T03:13:34.420Z,18.73
2023-01-25T03:16:04.027Z,19.15
2023-01-25T03:18:30.952Z,17.73
2023-01-25T03:21:03.768Z,19.35
2023-01-25T03:23:30.304Z,17.25
2023-01-25T03:26:06.096Z,17.88
2023-01-25T03:28:32.723Z,17.70
2023-01-25T03:30:59.407Z,17.40
2023-01-25T03:33:26.030Z,18.92
2023-01-25T03:35:53.809Z,17.95
2023-01-25T03:38:20.807Z,18.77
2023-01-25T03:40:47.910Z,18.02
2023-01-25T03:43:14.862Z,19.05
2023-01-25T03:45:41.654Z,20.40
2023-01-25T03:48:08.220Z,21.25
2023-01-25T03:50:34.851Z,19.83
2023-01-25T03:53:07.062Z,21.40
2023-01-25T03:55:34.544Z,19.75
2023-01-25T03:58:01.318Z,20.00
2023-01-25T04:00:27.948Z,19.13
2023-01-25T04:02:54.515Z,18.02
2023-01-25T04:05:21.173Z,18.02
2023-01-25T04:07:47.732Z,17.92
2023-01-25T04:10:14.332Z,17.95
2023-01-25T04:12:41.017Z,17.85
2023-01-25T04:15:08.628Z,16.48
2023-01-25T04:17:35.352Z,17.98
2023-01-25T04:20:02.009Z,17.70
2023-01-25T04:22:28.584Z,16.92
2023-01-25T04:24:58.301Z,16.67
2023-01-25T04:27:28.212Z,16.63
2023-01-25T04:29:54.771Z,17.65
2023-01-25T04:32:21.440Z,18.55
2023-01-25T04:34:48.050Z,18.13
2023-01-25T04:37:14.639Z,18.75
2023-01-25T04:39:41.256Z,16.98
2023-01-25T04:42:07.803Z,15.95
2023-01-25T04:44:34.364Z,16.13
2023-01-25T04:47:01.008Z,15.68
2023-01-25T04:49:27.571Z,16.45
2023-01-25T04:51:54.201Z,17.20
2023-01-25T04:54:20.785Z,16.10
2023-01-25T04:56:47.318Z,16.60
2023-01-25T04:59:13.904Z,16.60
2023-01-25T05:01:40.505Z,19.20
2023-01-25T05:04:07.318Z,20.50
2023-01-25T05:06:33.948Z,20.23
2023-01-25T05:09:00.783Z,21.13
2023-01-25T05:11:27.436Z,21.20
2023-01-25T05:13:54.905Z,21.77
2023-01-25T05:16:21.713Z,22.35
2023-01-25T05:18:49.393Z,20.63
2023-01-25T05:21:31.427Z,18.10
2023-01-25T05:23:58.564Z,18.88
2023-01-25T05:26:40.476Z,18.98
2023-01-25T05:29:07.115Z,18.33
2023-01-25T05:31:33.782Z,18.73
2023-01-25T05:34:00.376Z,18.30
2023-01-25T05:36:27.161Z,18.85
2023-01-25T05:38:53.742Z,19.23
2023-01-25T05:41:20.373Z,16.83
2023-01-25T05:43:52.244Z,15.20
2023-01-25T05:46:18.878Z,16.45
2023-01-25T05:48:47.824Z,17.02
2023-01-25T05:51:14.424Z,15.48
2023-01-25T05:53:40.995Z,15.43
2023-01-25T05:56:10.362Z,15.77
2023-01-25T05:58:37.998Z,15.18
2023-01-25T06:01:06.765Z,16.05
2023-01-25T06:03:34.083Z,15.15
2023-01-25T06:06:02.969Z,15.20
2023-01-25T06:08:31.742Z,14.85
2023-01-25T06:10:58.888Z,14.20
2023-01-25T06:13:25.652Z,14.95
2023-01-25T06:15:54.836Z,16.92
2023-01-25T06:18:22.492Z,15.27
2023-01-25T06:20:49.078Z,15.70
2023-01-25T06:23:15.631Z,16.05
2023-01-25T06:25:42.455Z,15.90
2023-01-25T06:28:09.164Z,15.90
2023-01-25T06:30:35.983Z,17.92
2023-01-25T06:33:02.798Z,16.90
2023-01-25T06:35:32.239Z,16.02
2023-01-25T06:37:59.900Z,16.42
2023-01-25T06:40:28.034Z,18.42
2023-01-25T06:42:55.002Z,18.25
2023-01-25T06:45:21.549Z,18.02
2023-01-25T06:47:49.648Z,17.17
2023-01-25T06:50:16.348Z,16.25
2023-01-25T06:52:42.917Z,16.30
2023-01-25T06:55:13.822Z,16.48
2023-01-25T06:57:40.417Z,16.00
2023-01-25T07:00:07.832Z,15.88
2023-01-25T07:02:34.485Z,15.52
2023-01-25T07:05:01.066Z,14.18
2023-01-25T07:07:27.687Z,16.23
2023-01-25T07:09:54.307Z,15.73
2023-01-25T07:12:22.235Z,15.95
2023-01-25T07:14:49.574Z,15.35
2023-01-25T07:17:16.159Z,16.33
2023-01-25T07:19:42.763Z,16.25
2023-01-25T07:22:09.350Z,16.30
2023-01-25T07:24:36.020Z,14.05
2023-01-25T07:27:02.640Z,15.10
2023-01-25T07:29:29.888Z,18.45
2023-01-25T07:31:56.545Z,17.17
2023-01-25T07:34:23.295Z,15.88
2023-01-25T07:36:49.857Z,17.10
2023-01-25T07:39:17.247Z,15.45
2023-01-25T07:41:43.837Z,14.73
2023-01-25T07:44:10.461Z,14.60
2023-01-25T07:46:37.165Z,15.18
2023-01-25T07:49:03.712Z,16.45
2023-01-25T07:51:31.129Z,16.52
2023-01-25T07:53:59.991Z,16.88
2023-01-25T07:56:29.103Z,16.05
2023-01-25T07:58:57.440Z,17.67
2023-01-25T08:01:26.588Z,15.95
2023-01-25T08:03:55.695Z,15.70
2023-01-25T08:06:27.491Z,16.27
2023-01-25T08:08:55.301Z,18.42
2023-01-25T08:11:24.686Z,17.05
2023-01-25T08:13:51.577Z,17.30
2023-01-25T08:16:20.764Z,17.92
2023-01-25T08:18:49.917Z,16.30
2023-01-25T08:21:16.526Z,17.00
2023-01-25T08:23:43.080Z,16.92
2023-01-25T08:26:15.491Z,16.15
2023-01-25T08:28:45.469Z,17.17
2023-01-25T08:31:16.896Z,16.48
2023-01-25T08:33:46.024Z,17.25
2023-01-25T08:36:14.266Z,18.77
2023-01-25T08:38:41.442Z,18.10
2023-01-25T08:41:10.667Z,16.70
2023-01-25T08:43:37.739Z,16.40
2023-01-25T08:46:05.111Z,16.50
2023-01-25T08:48:31.716Z,15.55
2023-01-25T08:50:59.018Z,15.45
2023-01-25T08:53:28.197Z,17.15
2023-01-25T08:55:54.863Z,16.02
2023-01-25T08:58:22.535Z,14.80
2023-01-25T09:00:49.777Z,16.13
2023-01-25T09:03:18.181Z,15.05
2023-01-25T09:05:44.922Z,15.55
2023-01-25T09:08:11.628Z,15.00
2023-01-25T09:10:38.302Z,15.80
2023-01-25T09:13:07.561Z,15.73
2023-01-25T09:15:34.967Z,15.70
2023-01-25T09:18:01.621Z,14.90
2023-01-25T09:20:29.460Z,14.43
2023-01-25T09:22:59.555Z,16.35
2023-01-25T09:25:26.192Z,15.27
2023-01-25T09:27:52.761Z,16.60
2023-01-25T09:30:19.717Z,16.50
2023-01-25T09:32:50.048Z,16.58
2023-01-25T09:35:17.210Z,15.55
2023-01-25T09:37:43.736Z,16.48
2023-01-25T09:40:21.021Z,16.50
2023-01-25T09:43:00.700Z,16.77
2023-01-25T09:45:36.752Z,15.32
2023-01-25T09:48:13.607Z,14.90
2023-01-25T09:50:50.204Z,15.63
2023-01-25T09:53:16.748Z,15.23
2023-01-25T09:55:44.492Z,15.07
2023-01-25T09:58:19.788Z,16.98
2023-01-25T10:00:48.201Z,15.73
2023-01-25T10:03:32.342Z,14.75
2023-01-25T10:06:01.848Z,14.57
2023-01-25T10:08:33.539Z,14.25
2023-01-25T10:11:08.841Z,13.63
2023-01-25T10:13:35.443Z,13.88
2023-01-25T10:16:14.636Z,15.23
2023-01-25T10:18:45.394Z,14.32
2023-01-25T10:21:20.881Z,14.05
2023-01-25T10:24:02.831Z,13.50
2023-01-25T10:26:34.355Z,13.52
2023-01-25T10:29:22.924Z,13.20
2023-01-25T10:31:53.627Z,12.65
2023-01-25T10:34:26.049Z,12.73
2023-01-25T10:36:56.498Z,14.02
2023-01-25T10:39:23.818Z,13.93
2023-01-25T10:41:59.318Z,14.10
2023-01-25T10:44:26.293Z,13.73
2023-01-25T10:47:08.198Z,12.50
2023-01-25T10:49:35.750Z,12.98
2023-01-25T10:52:19.254Z,15.10
2023-01-25T10:54:47.118Z,15.10
2023-01-25T10:57:18.814Z,16.23
2023-01-25T10:59:49.180Z,15.45
2023-01-25T11:02:46.253Z,16.63
2023-01-25T11:05:25.926Z,16.08
2023-01-25T11:07:52.905Z,14.80
2023-01-25T11:10:37.295Z,18.52
2023-01-25T11:13:20.897Z,15.48
2023-01-25T11:15:52.181Z,14.55
2023-01-25T11:18:25.690Z,13.77
2023-01-25T11:21:12.342Z,13.25
2023-01-25T11:23:38.953Z,13.85
2023-01-25T11:26:15.099Z,12.68
2023-01-25T11:28:42.254Z,11.48
2023-01-25T11:31:13.215Z,12.35
2023-01-25T11:33:40.720Z,12.85
2023-01-25T11:36:31.642Z,12.00
2023-01-25T11:39:14.462Z,13.57
2023-01-25T11:42:06.960Z,11.93
2023-01-25T11:44:43.441Z,12.82
2023-01-25T11:49:59.755Z,15.07
2023-01-25T11:52:43.734Z,14.18
2023-01-25T11:55:26.508Z,15.85
2023-01-25T11:58:08.259Z,16.30
2023-01-25T12:01:01.733Z,15.95
2023-01-25T12:03:43.643Z,15.68
2023-01-25T12:06:15.982Z,16.02
2023-01-25T12:08:52.541Z,13.90
2023-01-25T12:11:43.489Z,14.80
2023-01-25T12:14:25.284Z,13.20
2023-01-25T12:17:08.551Z,15.35
2023-01-25T12:19:45.491Z,13.65
2023-01-25T12:22:24.372Z,13.73
2023-01-25T12:25:21.833Z,14.57
2023-01-25T12:30:43.595Z,14.18
2023-01-25T12:33:28.580Z,16.40
2023-01-25T12:36:01.587Z,14.88
2023-01-25T12:38:44.616Z,16.50
2023-01-25T12:41:30.178Z,15.02
2023-01-25T12:44:15.849Z,16.42
2023-01-25T12:46:50.864Z,14.88
2023-01-25T12:49:28.506Z,16.92
2023-01-25T12:51:59.040Z,13.60
2023-01-25T12:54:32.921Z,14.02
2023-01-25T12:57:25.505Z,13.30
2023-01-25T12:59:59.433Z,13.27
2023-01-25T13:02:42.406Z,13.50
2023-01-25T13:05:29.439Z,13.57
2023-01-25T13:08:03.075Z,13.93
2023-01-25T13:10:39.320Z,13.60
2023-01-25T13:13:21.308Z,14.13
2023-01-25T13:15:48.618Z,14.05
2023-01-25T13:18:32.558Z,13.05
2023-01-25T13:21:03.902Z,12.82
2023-01-25T13:23:31.350Z,10.85
2023-01-25T13:26:28.475Z,12.10
2023-01-25T13:28:57.958Z,11.60
2023-01-25T13:31:53.349Z,13.48
2023-01-25T13:34:36.577Z,16.45
2023-01-25T13:37:18.204Z,16.27
2023-01-25T13:39:49.655Z,14.43
2023-01-25T13:42:23.570Z,13.98
2023-01-25T13:44:54.570Z,13.57
2023-01-25T13:47:24.359Z,13.63
2023-01-25T13:50:04.268Z,13.80
2023-01-25T13:52:32.340Z,13.55
2023-01-25T13:55:00.058Z,12.70
2023-01-25T13:57:31.860Z,11.15
2023-01-25T14:00:10.575Z,11.45
2023-01-25T14:02:40.396Z,11.65
2023-01-25T14:05:17.974Z,12.15
2023-01-25T14:07:47.550Z,10.93
2023-01-25T14:10:23.360Z,11.40
2023-01-25T14:12:51.910Z,11.45
2023-01-25T14:15:23.301Z,11.32
2023-01-25T14:18:14.337Z,11.57
2023-01-25T14:20:41.818Z,11.77
2023-01-25T14:23:28.067Z,11.35
2023-01-25T14:25:58.635Z,11.80
2023-01-25T14:28:27.086Z,11.45
2023-01-25T14:30:56.840Z,12.52
2023-01-25T14:33:29.763Z,12.50
2023-01-25T14:36:16.379Z,12.18
2023-01-25T14:38:50.876Z,11.45
2023-01-25T14:41:22.546Z,11.10
2023-01-25T14:43:51.959Z,12.52
2023-01-25T14:46:34.744Z,11.95
2023-01-25T14:49:25.651Z,12.30
2023-01-25T14:52:05.879Z,11.68
2023-01-25T14:54:44.580Z,13.10
2023-01-25T14:57:40.701Z,12.65
2023-01-25T15:00:19.712Z,13.13
2023-01-25T15:02:49.851Z,14.00
2023-01-25T15:05:20.331Z,12.63
2023-01-25T15:07:49.085Z,13.07
2023-01-25T15:10:17.720Z,13.10
2023-01-25T15:13:07.635Z,13.65
2023-01-25T15:15:55.319Z,12.18
2023-01-25T15:18:46.270Z,12.15
2023-01-25T15:21:19.584Z,13.13
2023-01-25T15:23:48.352Z,12.15
2023-01-25T15:26:20.976Z,14.45
2023-01-25T15:28:48.761Z,13.82
2023-01-25T15:31:20.972Z,13.75
2023-01-25T15:33:47.779Z,13.43
2023-01-25T15:36:15.067Z,14.23
2023-01-25T15:38:42.141Z,13.88
2023-01-25T15:41:09.549Z,14.77
2023-01-25T15:43:36.162Z,14.50
2023-01-25T15:46:05.614Z,13.80
2023-01-25T15:48:36.602Z,13.55
2023-01-25T15:51:03.707Z,13.82
2023-01-25T15:53:30.385Z,13.68
2023-01-25T15:56:02.014Z,13.13
2023-01-25T15:58:36.485Z,13.70
2023-01-25T16:01:03.646Z,13.38
2023-01-25T16:03:32.437Z,13.98
2023-01-25T16:06:05.881Z,14.35
2023-01-25T16:08:33.558Z,13.23
2023-01-25T16:11:00.369Z,12.32
2023-01-25T16:13:26.937Z,14.40
2023-01-25T16:15:56.738Z,15.00
2023-01-25T16:18:23.325Z,13.57
2023-01-25T16:20:50.203Z,13.18
2023-01-25T16:23:16.840Z,12.95
2023-01-25T16:25:47.440Z,13.68
2023-01-25T16:28:19.229Z,15.13
2023-01-25T16:30:49.840Z,13.75
2023-01-25T16:33:16.510Z,13.88
2023-01-25T16:35:43.087Z,13.52
2023-01-25T16:38:11.646Z,13.27
2023-01-25T16:40:39.717Z,13.55
2023-01-25T16:43:06.567Z,13.48
2023-01-25T16:45:33.321Z,13.35
2023-01-25T16:48:01.940Z,12.98
2023-01-25T16:50:28.697Z,13.40
2023-01-25T16:52:56.211Z,14.57
2023-01-25T16:55:22.794Z,14.70
2023-01-25T16:57:51.303Z,12.63
2023-01-25T17:00:18.253Z,12.93
2023-01-25T17:02:58.272Z,14.50
2023-01-25T17:05:33.586Z,14.40
2023-01-25T17:08:00.415Z,15.20
2023-01-25T17:10:27.116Z,14.23
2023-01-25T17:12:53.744Z,14.23
2023-01-25T17:15:20.559Z,14.23
2023-01-25T17:17:47.172Z,13.80
2023-01-25T17:20:13.791Z,15.40
2023-01-25T17:22:41.973Z,14.95
2023-01-25T17:25:08.660Z,15.23
2023-01-25T17:27:35.296Z,14.88
2023-01-25T17:30:02.059Z,16.05
2023-01-25T17:32:28.808Z,15.10
2023-01-25T17:34:59.017Z,16.00
2023-01-25T17:37:25.918Z,15.18
2023-01-25T17:39:52.828Z,15.35
2023-01-25T17:42:19.529Z,14.15
2023-01-25T17:44:46.112Z,15.80
2023-01-25T17:47:12.719Z,16.88
2023-01-25T17:49:39.282Z,16.42
2023-01-25T17:52:06.146Z,16.33
2023-01-25T17:54:32.803Z,16.38
2023-01-25T17:56:59.697Z,16.55
2023-01-25T17:59:26.320Z,16.15
2023-01-25T18:01:53.002Z,15.68
2023-01-25T18:04:20.729Z,16.88
2023-01-25T18:06:47.354Z,17.08
2023-01-25T18:09:14.324Z,15.82
2023-01-25T18:11:41.110Z,18.48
2023-01-25T18:14:12.048Z,15.95
2023-01-25T18:16:40.170Z,14.05
2023-01-25T18:19:07.850Z,15.23
2023-01-25T18:21:35.213Z,14.77
2023-01-25T18:24:07.850Z,15.10
2023-01-25T18:26:37.178Z,15.45
2023-01-25T18:29:34.073Z,14.68
2023-01-25T18:32:00.824Z,14.35
2023-01-25T18:34:27.489Z,15.82
2023-01-25T18:36:59.282Z,15.07
2023-01-25T18:39:26.578Z,13.93
2023-01-25T18:41:53.204Z,14.15
2023-01-25T18:44:19.922Z,15.05
2023-01-25T18:46:48.000Z,13.63
2023-01-25T18:49:14.688Z,14.02
2023-01-25T18:52:01.808Z,15.05
2023-01-25T18:56:55.523Z,14.60
2023-01-25T18:59:22.129Z,16.05
2023-01-25T19:01:48.816Z,15.30
2023-01-25T19:04:15.678Z,16.00
2023-01-25T19:06:42.274Z,16.38
2023-01-25T19:09:08.918Z,15.82
2023-01-25T19:11:35.528Z,15.52
2023-01-25T19:14:02.180Z,16.17
2023-01-25T19:16:28.804Z,16.75
2023-01-25T19:18:55.381Z,16.67
2023-01-25T19:21:24.898Z,16.75
2023-01-25T19:23:52.962Z,18.38
2023-01-25T19:26:21.890Z,18.15
2023-01-25T19:28:48.967Z,19.27
2023-01-25T19:31:18.913Z,15.77
2023-01-25T19:33:46.396Z,16.05
2023-01-25T19:36:16.746Z,17.20
2023-01-25T19:38:43.795Z,16.95
2023-01-25T19:41:13.686Z,16.92
2023-01-25T19:43:42.766Z,17.17
2023-01-25T19:46:12.645Z,16.95
2023-01-25T19:48:41.076Z,16.48
2023-01-25T19:51:18.575Z,18.30
2023-01-25T19:53:47.494Z,17.13
2023-01-25T19:56:16.187Z,17.08
2023-01-25T19:58:43.731Z,16.25
2023-01-25T20:01:13.920Z,17.25
2023-01-25T20:03:41.805Z,15.65
2023-01-25T20:06:09.750Z,17.10
2023-01-25T20:08:38.740Z,16.85
2023-01-25T20:11:11.067Z,16.90
2023-01-25T20:13:38.223Z,16.75
2023-01-25T20:16:05.404Z,16.02
2023-01-25T20:18:32.403Z,16.90
2023-01-25T20:21:01.369Z,18.50
2023-01-25T20:23:32.456Z,17.15
2023-01-25T20:26:01.940Z,15.93
2023-01-25T20:28:32.077Z,15.50
2023-01-25T20:31:04.266Z,15.05
2023-01-25T20:33:32.775Z,14.32
2023-01-25T20:36:01.431Z,16.02
2023-01-25T20:38:32.822Z,15.77
2023-01-25T20:41:01.040Z,15.90
2023-01-25T20:43:29.562Z,16.17
2023-01-25T20:45:56.657Z,15.02
2023-01-25T20:48:24.182Z,15.43
2023-01-25T20:50:50.791Z,14.80
2023-01-25T20:53:18.040Z,15.07
2023-01-25T20:55:45.279Z,16.15
2023-01-25T20:58:12.077Z,16.88
2023-01-25T21:00:38.827Z,14.40
2023-01-25T21:03:05.472Z,14.20
2023-01-25T21:05:32.073Z,13.82
2023-01-25T21:07:58.626Z,12.95
2023-01-25T21:10:25.275Z,15.20
2023-01-25T21:12:51.854Z,16.15
2023-01-25T21:15:18.540Z,15.25
2023-01-25T21:17:45.134Z,15.75
2023-01-25T21:20:11.861Z,16.15
2023-01-25T21:22:38.477Z,16.05
2023-01-25T21:25:05.277Z,17.27
2023-01-25T21:27:31.871Z,16.95
2023-01-25T21:29:58.517Z,15.73
2023-01-25T21:32:25.587Z,17.45
2023-01-25T21:34:52.265Z,16.77
2023-01-25T21:37:18.878Z,16.92
2023-01-25T21:39:45.468Z,17.42
2023-01-25T21:42:12.011Z,17.55
2023-01-25T21:44:53.835Z,16.45
2023-01-25T21:47:29.876Z,16.90
2023-01-25T21:50:17.116Z,16.70
2023-01-25T21:52:43.686Z,21.13
2023-01-25T21:55:10.302Z,22.08
2023-01-25T21:57:36.883Z,20.70
2023-01-25T22:00:05.452Z,17.15
2023-01-25T22:02:32.495Z,16.20
2023-01-25T22:04:59.038Z,17.45
2023-01-25T22:07:25.672Z,17.40
2023-01-25T22:09:52.232Z,17.45
2023-01-25T22:12:18.945Z,19.23
2023-01-25T22:14:45.533Z,17.10
2023-01-25T22:17:12.122Z,18.63
2023-01-25T22:19:38.734Z,17.80
2023-01-25T22:22:05.327Z,17.80
2023-01-25T22:24:31.893Z,18.80
2023-01-25T22:27:16.612Z,17.30
2023-01-25T22:29:43.217Z,17.98
2023-01-25T22:32:09.770Z,19.30
2023-01-25T22:34:36.439Z,18.08
2023-01-25T22:37:02.997Z,16.92
2023-01-25T22:39:29.587Z,17.35
2023-01-25T22:41:56.526Z,18.85
2023-01-25T22:44:23.101Z,18.65
2023-01-25T22:46:50.662Z,18.80
2023-01-25T22:49:17.337Z,18.10
2023-01-25T22:51:43.950Z,17.23
2023-01-25T22:54:10.531Z,17.90
2023-01-25T22:56:37.115Z,17.38
2023-01-25T22:59:03.705Z,16.45
2023-01-25T23:01:33.216Z,16.80
2023-01-25T23:04:00.714Z,17.40
2023-01-25T23:06:30.409Z,16.08
2023-01-25T23:09:00.042Z,17.00
2023-01-25T23:11:32.314Z,17.40
2023-01-25T23:14:15.194Z,17.02
2023-01-25T23:16:42.688Z,17.25
2023-01-25T23:19:10.038Z,16.80
2023-01-25T23:21:36.634Z,16.58
2023-01-25T23:24:03.920Z,16.38
2023-01-25T23:26:37.573Z,17.02
2023-01-25T23:29:07.594Z,16.90
2023-01-25T23:31:34.374Z,16.85
2023-01-25T23:34:03.625Z,16.17
2023-01-25T23:36:32.609Z,17.02
2023-01-25T23:38:59.602Z,16.30
2023-01-25T23:41:28.574Z,16.70
2023-01-25T23:43:55.980Z,17.98
2023-01-25T23:46:23.478Z,16.00
2023-01-25T23:48:50.842Z,17.02
2023-01-25T23:51:18.229Z,15.43
2023-01-25T23:53:45.068Z,16.80
2023-01-25T23:56:16.878Z,16.80
2023-01-25T23:58:44.333Z,15.88
